OIIS  Semnan Airport

Add Bookmark

Semnan, Iran

Status
Operational
Latitude Longitude
35° 35' 27" N 53° 29' 42" E
35.591099 53.495098
Local (DST + 5) UTC (GMT + 4)
Oct 2, 2014 11:53 Oct 2, 2014 08:23
Sunrise-Sunset Local UTC
Begin Civil Twilight 05:25 01:55
Sunrise 05:50 02:20
Sunset 05:40 14:10
End Civil Twilight 06:05 14:35

Current Weather

METAR Observed VFR
OIIS 020700Z 20004KT CAVOK 29/04 Q1019 Thu, Oct 2, 2014 @ 07:00 UTC
(1 Hour, 23 Minutes ago)
Visual Flight Rules
Wind Visibility Clouds Conditions
200° at 4 knots (7 kph) 10 km or more
  • Clear skies
  • No significant weather
Temperatures Readings Precipitation
Current Temp 29°C (84°F)
Dewpoint 4°C (39°F)
Humidity 20%
Altimeter 30.09"Hg
Sea Level Pressure 1019mb
Field Elevation 3658.14'
None Recorded

Additional weather within a 185.2km radius of OIIS

Map ICAO Location
OINZ 119.3km N (347°)
OINB 146.5km N (329°)
OING 167.4km N (029°)

24 Hour Weather History

Loading
-

24 Hour Weather Graphs

Loading
-

CheckWX.com is intended as a tool to help pilots better visualize weather data. It is not intended as a substitute for an official weather briefing obtained from a Flight Service Station. CheckWX.com does not meet the FAA requirements for an official pre-flight weather briefing. Therefore, it's important that pilots still call and obtain an official FSS pre-flight weather briefing.